createdAt,value
2022-11-15T00:01:39.878Z,1.23
2022-11-15T00:04:39.176Z,1.40
2022-11-15T00:07:53.948Z,2.10
2022-11-15T00:10:38.079Z,0.93
2022-11-15T00:13:28.053Z,0.85
2022-11-15T00:16:21.337Z,0.80
2022-11-15T00:19:11.069Z,1.27
2022-11-15T00:22:09.638Z,0.80
2022-11-15T00:24:57.911Z,1.02
2022-11-15T00:27:50.111Z,1.20
2022-11-15T00:30:39.385Z,1.15
2022-11-15T00:33:27.046Z,1.63
2022-11-15T00:36:31.881Z,1.10
2022-11-15T00:39:20.927Z,1.40
2022-11-15T00:42:11.559Z,1.08
2022-11-15T00:45:20.377Z,1.00
2022-11-15T00:48:11.057Z,1.08
2022-11-15T00:54:15.657Z,1.55
2022-11-15T00:57:07.254Z,0.93
2022-11-15T00:59:57.573Z,1.02
2022-11-15T01:02:52.070Z,0.90
2022-11-15T01:05:50.090Z,1.45
2022-11-15T01:08:42.743Z,0.70
2022-11-15T01:11:38.988Z,0.90
2022-11-15T01:14:30.594Z,0.60
2022-11-15T01:17:21.108Z,0.68
2022-11-15T01:20:16.505Z,1.15
2022-11-15T01:23:09.051Z,1.15
2022-11-15T01:28:50.780Z,0.80
2022-11-15T01:31:41.799Z,0.70
2022-11-15T01:34:30.614Z,1.38
2022-11-15T01:37:30.858Z,0.73
2022-11-15T01:40:41.502Z,0.82
2022-11-15T01:43:31.321Z,0.75
2022-11-15T01:46:26.428Z,0.60
2022-11-15T01:49:18.113Z,0.73
2022-11-15T01:52:14.751Z,0.90
2022-11-15T01:55:07.986Z,0.90
2022-11-15T01:58:01.494Z,1.02
2022-11-15T02:00:50.830Z,1.20
2022-11-15T02:03:47.749Z,0.80
2022-11-15T02:06:36.177Z,1.02
2022-11-15T02:09:30.857Z,1.02
2022-11-15T02:12:22.941Z,0.50
2022-11-15T02:15:17.633Z,1.25
2022-11-15T02:18:16.180Z,0.70
2022-11-15T02:21:13.740Z,0.80
2022-11-15T02:24:20.321Z,1.23
2022-11-15T02:27:30.930Z,0.73
2022-11-15T02:30:33.106Z,0.90
2022-11-15T02:33:29.462Z,1.40
2022-11-15T02:36:23.018Z,0.90
2022-11-15T02:39:14.064Z,0.85
2022-11-15T02:42:05.588Z,1.02
2022-11-15T02:44:56.093Z,0.90
2022-11-15T02:47:46.765Z,0.60
2022-11-15T02:50:36.054Z,1.00
2022-11-15T02:53:29.503Z,0.70
2022-11-15T02:56:18.433Z,1.92
2022-11-15T02:59:23.410Z,1.48
2022-11-15T03:02:21.507Z,2.83
2022-11-15T03:05:16.649Z,0.82
2022-11-15T03:08:11.665Z,1.10
2022-11-15T03:11:05.576Z,0.70
2022-11-15T03:14:07.194Z,1.02
2022-11-15T03:16:59.977Z,0.57
2022-11-15T03:19:51.185Z,0.90
2022-11-15T03:22:45.812Z,0.88
2022-11-15T03:25:36.110Z,3.53
2022-11-15T03:28:28.343Z,4.40
2022-11-15T03:31:39.637Z,4.15
2022-11-15T03:34:33.615Z,3.28
2022-11-15T03:37:26.000Z,4.50
2022-11-15T03:40:22.407Z,3.37
2022-11-15T03:43:16.849Z,2.55
2022-11-15T03:46:09.860Z,2.20
2022-11-15T03:49:13.485Z,2.00
2022-11-15T03:52:03.697Z,1.58
2022-11-15T03:54:57.790Z,2.20
2022-11-15T03:57:52.653Z,1.60
2022-11-15T04:00:50.680Z,1.58
2022-11-15T04:03:47.624Z,0.98
2022-11-15T04:06:40.687Z,1.77
2022-11-15T04:12:31.911Z,1.20
2022-11-15T04:15:25.515Z,0.80
2022-11-15T04:18:23.258Z,1.20
2022-11-15T04:21:29.057Z,1.35
2022-11-15T04:24:22.941Z,0.80
2022-11-15T04:27:15.187Z,1.00
2022-11-15T04:30:09.613Z,1.17
2022-11-15T04:33:01.008Z,1.10
2022-11-15T04:36:09.520Z,1.08
2022-11-15T04:39:00.814Z,1.27
2022-11-15T04:41:50.850Z,1.27
2022-11-15T04:44:46.992Z,1.52
2022-11-15T04:47:39.080Z,0.95
2022-11-15T04:50:34.708Z,0.90
2022-11-15T04:53:28.345Z,1.20
2022-11-15T04:56:21.028Z,1.33
2022-11-15T04:59:14.890Z,0.80
2022-11-15T05:02:03.578Z,1.80
2022-11-15T05:04:51.200Z,2.03
2022-11-15T05:07:40.533Z,1.00
2022-11-15T05:10:31.209Z,1.45
2022-11-15T05:13:23.536Z,1.77
2022-11-15T05:16:16.128Z,1.90
2022-11-15T05:19:18.075Z,1.60
2022-11-15T05:22:13.331Z,1.33
2022-11-15T05:25:02.955Z,2.65
2022-11-15T05:27:55.395Z,1.00
2022-11-15T05:30:44.234Z,1.23
2022-11-15T05:33:38.570Z,1.20
2022-11-15T05:36:32.688Z,1.33
2022-11-15T05:39:48.456Z,3.25
2022-11-15T05:42:38.233Z,2.53
2022-11-15T05:45:27.119Z,1.13
2022-11-15T05:48:15.698Z,1.33
2022-11-15T05:51:06.710Z,1.23
2022-11-15T05:54:08.291Z,1.47
2022-11-15T05:57:03.273Z,1.17
2022-11-15T06:00:00.627Z,1.17
2022-11-15T06:02:49.215Z,1.10
2022-11-15T06:05:37.183Z,1.15
2022-11-15T06:08:25.152Z,1.35
2022-11-15T06:11:16.174Z,1.55
2022-11-15T06:14:04.160Z,1.65
2022-11-15T06:16:53.307Z,1.33
2022-11-15T06:19:44.132Z,3.15
2022-11-15T06:22:34.350Z,1.13
2022-11-15T06:25:23.456Z,2.35
2022-11-15T06:28:12.139Z,1.52
2022-11-15T06:31:07.837Z,1.33
2022-11-15T06:33:57.781Z,1.42
2022-11-15T06:36:47.534Z,1.13
2022-11-15T06:39:36.086Z,2.15
2022-11-15T06:42:29.383Z,1.30
2022-11-15T06:45:19.568Z,1.30
2022-11-15T06:48:13.694Z,1.27
2022-11-15T06:51:05.970Z,1.42
2022-11-15T06:56:45.284Z,1.20
2022-11-15T06:59:37.764Z,0.93
2022-11-15T07:02:31.232Z,1.80
2022-11-15T07:05:22.408Z,0.90
2022-11-15T07:08:14.590Z,1.50
2022-11-15T07:11:06.756Z,1.20
2022-11-15T07:13:59.306Z,1.10
2022-11-15T07:16:48.877Z,1.35
2022-11-15T07:19:39.521Z,1.00
2022-11-15T07:22:35.583Z,1.30
2022-11-15T07:25:25.006Z,1.35
2022-11-15T07:28:17.021Z,1.88
2022-11-15T07:31:06.222Z,1.65
2022-11-15T07:33:56.153Z,1.25
2022-11-15T07:36:44.092Z,1.27
2022-11-15T07:39:35.291Z,1.50
2022-11-15T07:42:42.939Z,1.10
2022-11-15T07:45:31.070Z,2.20
2022-11-15T07:48:21.945Z,1.80
2022-11-15T07:51:29.264Z,1.67
2022-11-15T07:54:21.899Z,1.63
2022-11-15T08:00:19.747Z,1.70
2022-11-15T08:03:11.627Z,1.38
2022-11-15T08:06:01.967Z,1.30
2022-11-15T08:08:52.107Z,1.35
2022-11-15T08:11:40.546Z,1.70
2022-11-15T08:14:33.513Z,1.20
2022-11-15T08:17:28.952Z,1.23
2022-11-15T08:20:35.101Z,1.25
2022-11-15T08:23:24.069Z,1.85
2022-11-15T08:26:25.701Z,1.33
2022-11-15T08:29:13.433Z,1.33
2022-11-15T08:32:03.468Z,0.85
2022-11-15T08:34:59.955Z,1.13
2022-11-15T08:37:50.518Z,0.85
2022-11-15T08:40:38.797Z,1.23
2022-11-15T08:43:44.708Z,0.80
2022-11-15T08:46:32.458Z,0.73
2022-11-15T08:49:22.675Z,1.05
2022-11-15T08:55:47.211Z,0.90
2022-11-15T08:58:58.936Z,0.50
2022-11-15T09:01:57.791Z,0.60
2022-11-15T09:04:58.562Z,0.60
2022-11-15T09:07:52.370Z,0.40
2022-11-15T09:10:49.570Z,0.55
2022-11-15T09:13:42.430Z,0.40
2022-11-15T09:16:59.291Z,0.50
2022-11-15T09:19:53.476Z,0.30
2022-11-15T09:22:44.230Z,0.52
2022-11-15T09:25:51.399Z,0.70
2022-11-15T09:28:43.116Z,0.40
2022-11-15T09:35:06.629Z,0.30
2022-11-15T09:38:02.293Z,0.40
2022-11-15T09:41:21.889Z,0.47
2022-11-15T09:44:25.115Z,0.35
2022-11-15T09:47:25.512Z,0.85
2022-11-15T09:52:46.781Z,0.35
2022-11-15T09:55:22.573Z,0.45
2022-11-15T09:57:59.937Z,0.60
2022-11-15T10:00:50.763Z,0.30
2022-11-15T10:03:23.954Z,0.20
2022-11-15T10:05:57.688Z,0.50
2022-11-15T10:11:37.347Z,0.40
2022-11-15T10:14:17.379Z,0.40
2022-11-15T10:17:02.911Z,0.40
2022-11-15T10:19:40.263Z,0.20
2022-11-15T10:22:27.669Z,0.85
2022-11-15T10:25:02.989Z,0.77
2022-11-15T10:27:37.950Z,0.60
2022-11-15T10:30:17.408Z,0.40
2022-11-15T10:32:55.275Z,0.60
2022-11-15T10:35:26.913Z,0.60
2022-11-15T10:38:12.704Z,0.57
2022-11-15T10:40:45.813Z,0.73
2022-11-15T10:43:27.390Z,0.50
2022-11-15T10:45:58.929Z,1.02
2022-11-15T10:48:31.229Z,1.02
2022-11-15T10:51:01.193Z,1.58
2022-11-15T10:53:35.194Z,0.60
2022-11-15T10:56:05.960Z,0.75
2022-11-15T10:58:40.634Z,0.75
2022-11-15T11:01:16.702Z,0.75
2022-11-15T11:04:05.878Z,1.10
2022-11-15T11:06:51.207Z,0.55
2022-11-15T11:09:26.382Z,0.40
2022-11-15T11:11:55.904Z,1.00
2022-11-15T11:14:32.511Z,0.50
2022-11-15T11:17:07.224Z,0.50
2022-11-15T11:19:49.016Z,0.75
2022-11-15T11:22:25.868Z,0.75
2022-11-15T11:25:00.046Z,1.17
2022-11-15T11:27:35.314Z,0.50
2022-11-15T11:30:06.967Z,0.80
2022-11-15T11:33:07.905Z,0.55
2022-11-15T11:35:46.942Z,0.40
2022-11-15T11:38:31.577Z,0.38
2022-11-15T11:41:05.208Z,0.45
2022-11-15T11:43:48.601Z,0.50
2022-11-15T11:46:28.978Z,0.57
2022-11-15T11:49:01.558Z,0.30
2022-11-15T11:51:37.436Z,0.50
2022-11-15T11:54:09.033Z,0.30
2022-11-15T11:56:42.832Z,0.40
2022-11-15T11:59:17.091Z,0.70
2022-11-15T12:01:47.836Z,0.60
2022-11-15T12:04:28.099Z,0.40
2022-11-15T12:07:02.538Z,0.70
2022-11-15T12:09:34.155Z,0.70
2022-11-15T12:12:11.072Z,0.70
2022-11-15T12:14:51.951Z,1.35
2022-11-15T12:17:24.665Z,0.60
2022-11-15T12:20:00.999Z,0.90
2022-11-15T12:22:40.559Z,0.85
2022-11-15T12:25:20.240Z,1.02
2022-11-15T12:27:53.747Z,1.13
2022-11-15T12:30:24.411Z,0.68
2022-11-15T12:32:55.811Z,0.63
2022-11-15T12:35:28.953Z,1.30
2022-11-15T12:37:59.745Z,1.80
2022-11-15T12:40:35.579Z,1.45
2022-11-15T12:43:32.146Z,1.10
2022-11-15T12:46:16.644Z,0.57
2022-11-15T12:48:56.794Z,0.70
2022-11-15T12:51:44.301Z,1.77
2022-11-15T12:54:33.305Z,0.65
2022-11-15T12:57:17.766Z,0.60
2022-11-15T12:59:53.305Z,1.77
2022-11-15T13:02:25.621Z,0.82
2022-11-15T13:04:57.636Z,1.05
2022-11-15T13:07:45.862Z,1.20
2022-11-15T13:10:30.199Z,0.63
2022-11-15T13:13:13.831Z,1.00
2022-11-15T13:15:58.165Z,0.98
2022-11-15T13:18:39.426Z,0.90
2022-11-15T13:21:39.177Z,1.05
2022-11-15T13:24:13.620Z,1.83
2022-11-15T13:26:42.735Z,0.85
2022-11-15T13:29:25.949Z,1.13
2022-11-15T13:32:03.957Z,0.68
2022-11-15T13:34:50.959Z,0.90
2022-11-15T13:37:34.216Z,1.05
2022-11-15T13:40:19.887Z,0.70
2022-11-15T13:42:49.542Z,1.50
2022-11-15T13:45:22.639Z,0.90
2022-11-15T13:47:58.748Z,1.00
2022-11-15T13:50:30.352Z,0.80
2022-11-15T13:53:00.393Z,0.90
2022-11-15T13:55:30.088Z,0.45
2022-11-15T13:58:27.412Z,1.25
2022-11-15T14:01:01.750Z,0.77
2022-11-15T14:03:34.997Z,0.77
2022-11-15T14:06:13.155Z,1.40
2022-11-15T14:08:44.479Z,1.20
2022-11-15T14:11:19.067Z,1.70
2022-11-15T14:14:05.024Z,0.80
2022-11-15T14:16:42.142Z,1.20
2022-11-15T14:19:47.822Z,1.05
2022-11-15T14:22:24.003Z,1.73
2022-11-15T14:25:16.502Z,0.90
2022-11-15T14:28:09.474Z,0.80
2022-11-15T14:30:39.742Z,0.75
2022-11-15T14:33:21.723Z,0.60
2022-11-15T14:35:52.228Z,1.05
2022-11-15T14:38:25.507Z,0.82
2022-11-15T14:40:55.068Z,0.95
2022-11-15T14:43:24.781Z,1.13
2022-11-15T14:46:18.663Z,1.05
2022-11-15T14:49:16.635Z,1.00
2022-11-15T14:51:50.327Z,0.70
2022-11-15T14:54:50.056Z,0.90
2022-11-15T14:57:21.653Z,1.20
2022-11-15T14:59:51.450Z,1.30
2022-11-15T15:02:22.600Z,1.00
2022-11-15T15:04:59.101Z,0.87
2022-11-15T15:07:31.155Z,1.63
2022-11-15T15:10:39.632Z,1.13
2022-11-15T15:13:03.323Z,1.80
2022-11-15T15:15:36.499Z,1.02
2022-11-15T15:18:06.321Z,1.15
2022-11-15T15:20:35.522Z,2.15
2022-11-15T15:23:04.563Z,1.20
2022-11-15T15:25:36.539Z,0.90
2022-11-15T15:28:06.010Z,1.63
2022-11-15T15:30:35.121Z,1.33
2022-11-15T15:33:04.722Z,1.10
2022-11-15T15:35:35.245Z,2.00
2022-11-15T15:38:06.495Z,0.90
2022-11-15T15:40:43.241Z,1.77
2022-11-15T15:43:13.165Z,1.10
2022-11-15T15:45:43.906Z,1.73
2022-11-15T15:48:14.936Z,1.10
2022-11-15T15:50:45.144Z,1.07
2022-11-15T15:53:15.357Z,1.30
2022-11-15T15:55:45.932Z,1.15
2022-11-15T15:58:15.118Z,1.23
2022-11-15T16:00:49.423Z,0.95
2022-11-15T16:03:21.560Z,1.30
2022-11-15T16:05:55.034Z,1.77
2022-11-15T16:08:25.053Z,1.50
2022-11-15T16:10:55.872Z,1.50
2022-11-15T16:13:25.241Z,0.90
2022-11-15T16:15:58.548Z,1.83
2022-11-15T16:18:40.776Z,1.65
2022-11-15T16:21:11.301Z,1.30
2022-11-15T16:23:42.107Z,1.63
2022-11-15T16:26:20.530Z,1.60
2022-11-15T16:28:49.958Z,2.15
2022-11-15T16:31:26.779Z,1.17
2022-11-15T16:33:59.102Z,1.50
2022-11-15T16:36:31.261Z,1.60
2022-11-15T16:39:01.014Z,2.08
2022-11-15T16:41:35.131Z,2.05
2022-11-15T16:44:04.404Z,2.30
2022-11-15T16:46:35.222Z,2.08
2022-11-15T16:49:17.537Z,1.60
2022-11-15T16:51:48.115Z,2.50
2022-11-15T16:54:17.858Z,1.60
2022-11-15T16:56:48.766Z,1.20
2022-11-15T16:59:20.123Z,1.30
2022-11-15T17:01:53.458Z,1.90
2022-11-15T17:04:27.856Z,1.55
2022-11-15T17:07:03.376Z,1.67
2022-11-15T17:09:34.375Z,1.85
2022-11-15T17:12:05.746Z,1.98
2022-11-15T17:14:36.442Z,1.50
2022-11-15T17:17:07.049Z,1.83
2022-11-15T17:19:36.364Z,1.55
2022-11-15T17:22:05.570Z,2.95
2022-11-15T17:24:37.293Z,2.33
2022-11-15T17:29:38.317Z,1.30
2022-11-15T17:32:10.222Z,2.28
2022-11-15T17:34:40.104Z,2.28
2022-11-15T17:37:10.351Z,1.73
2022-11-15T17:39:45.892Z,1.83
2022-11-15T17:42:17.336Z,3.60
2022-11-15T17:44:56.316Z,3.08
2022-11-15T17:47:25.889Z,2.33
2022-11-15T17:49:57.256Z,2.75
2022-11-15T17:52:26.971Z,2.30
2022-11-15T17:55:02.901Z,2.60
2022-11-15T17:57:32.781Z,2.30
2022-11-15T18:00:04.090Z,3.17
2022-11-15T18:02:33.847Z,1.08
2022-11-15T18:05:04.550Z,1.60
2022-11-15T18:07:34.700Z,1.27
2022-11-15T18:10:04.957Z,1.05
2022-11-15T18:12:38.008Z,1.40
2022-11-15T18:15:14.930Z,1.25
2022-11-15T18:18:00.609Z,0.80
2022-11-15T18:20:30.523Z,0.70
2022-11-15T18:22:59.850Z,0.90
2022-11-15T18:25:33.642Z,1.02
2022-11-15T18:28:07.238Z,0.40
2022-11-15T18:30:41.371Z,0.77
2022-11-15T18:33:10.960Z,0.80
2022-11-15T18:35:42.537Z,0.70
2022-11-15T18:38:12.737Z,0.85
2022-11-15T18:40:42.382Z,0.68
2022-11-15T18:43:12.253Z,0.65
2022-11-15T18:45:43.606Z,0.60
2022-11-15T18:48:17.974Z,0.80
2022-11-15T18:50:53.904Z,0.95
2022-11-15T18:53:26.132Z,1.10
2022-11-15T18:56:02.264Z,0.60
2022-11-15T18:58:39.197Z,0.77
2022-11-15T19:01:18.634Z,1.45
2022-11-15T19:03:51.610Z,1.30
2022-11-15T19:06:25.529Z,2.25
2022-11-15T19:08:56.522Z,1.65
2022-11-15T19:11:29.904Z,1.70
2022-11-15T19:14:04.324Z,1.88
2022-11-15T19:16:44.957Z,2.53
2022-11-15T19:19:18.329Z,3.10
2022-11-15T19:21:49.898Z,2.17
2022-11-15T19:24:23.970Z,2.63
2022-11-15T19:26:59.350Z,2.15
2022-11-15T19:29:32.889Z,1.45
2022-11-15T19:32:10.037Z,1.58
2022-11-15T19:34:43.642Z,1.27
2022-11-15T19:37:16.294Z,1.90
2022-11-15T19:39:48.878Z,1.38
2022-11-15T19:42:25.170Z,1.40
2022-11-15T19:44:57.261Z,1.48
2022-11-15T19:49:59.825Z,2.10
2022-11-15T19:52:29.916Z,2.17
2022-11-15T19:55:01.115Z,3.78
2022-11-15T19:57:34.440Z,3.45
2022-11-15T20:00:07.518Z,4.03
2022-11-15T20:02:37.268Z,3.40
2022-11-15T20:05:08.170Z,2.92
2022-11-15T20:07:37.543Z,2.33
2022-11-15T20:10:07.401Z,2.10
2022-11-15T20:12:39.111Z,2.55
2022-11-15T20:15:11.756Z,2.85
2022-11-15T20:17:41.158Z,2.35
2022-11-15T20:20:13.992Z,2.13
2022-11-15T20:22:43.303Z,1.65
2022-11-15T20:25:12.862Z,1.70
2022-11-15T20:27:44.100Z,1.55
2022-11-15T20:30:16.915Z,2.30
2022-11-15T20:32:49.156Z,2.05
2022-11-15T20:35:23.787Z,2.17
2022-11-15T20:37:56.257Z,2.35
2022-11-15T20:40:29.482Z,1.88
2022-11-15T20:43:04.335Z,2.20
2022-11-15T20:45:37.842Z,2.08
2022-11-15T20:48:08.080Z,2.05
2022-11-15T20:50:48.017Z,2.17
2022-11-15T20:53:18.870Z,2.13
2022-11-15T20:55:53.401Z,2.75
2022-11-15T20:58:32.411Z,1.88
2022-11-15T21:01:08.717Z,1.90
2022-11-15T21:03:38.975Z,2.20
2022-11-15T21:06:20.000Z,3.17
2022-11-15T21:09:07.383Z,1.92
2022-11-15T21:11:57.421Z,2.25
2022-11-15T21:14:28.184Z,2.30
2022-11-15T21:17:08.075Z,2.00
2022-11-15T21:19:39.639Z,2.55
2022-11-15T21:22:11.483Z,2.03
2022-11-15T21:24:43.763Z,3.33
2022-11-15T21:30:04.115Z,2.00
2022-11-15T21:32:37.827Z,1.63
2022-11-15T21:35:09.910Z,2.13
2022-11-15T21:37:41.285Z,1.60
2022-11-15T21:40:13.475Z,3.03
2022-11-15T21:42:46.427Z,1.33
2022-11-15T21:45:18.671Z,1.05
2022-11-15T21:47:51.742Z,1.70
2022-11-15T21:50:24.185Z,2.10
2022-11-15T21:53:02.769Z,1.90
2022-11-15T21:55:35.317Z,2.75
2022-11-15T21:58:09.078Z,4.53
2022-11-15T22:00:56.459Z,4.10
2022-11-15T22:03:27.730Z,2.10
2022-11-15T22:06:00.016Z,1.83
2022-11-15T22:08:32.312Z,1.35
2022-11-15T22:11:08.912Z,1.67
2022-11-15T22:13:38.719Z,3.20
2022-11-15T22:16:10.882Z,2.05
2022-11-15T22:18:40.839Z,1.40
2022-11-15T22:21:12.809Z,1.77
2022-11-15T22:23:46.762Z,1.92
2022-11-15T22:26:24.014Z,1.60
2022-11-15T22:28:57.154Z,2.70
2022-11-15T22:31:26.660Z,2.90
2022-11-15T22:33:58.345Z,1.90
2022-11-15T22:36:42.491Z,2.28
2022-11-15T22:39:23.126Z,2.22
2022-11-15T22:41:59.643Z,2.67
2022-11-15T22:44:31.858Z,1.98
2022-11-15T22:47:04.618Z,5.00
2022-11-15T22:49:38.529Z,2.00
2022-11-15T22:52:11.011Z,2.33
2022-11-15T22:54:42.312Z,2.92
2022-11-15T22:57:15.384Z,3.13
2022-11-15T22:59:48.201Z,1.83
2022-11-15T23:02:17.898Z,1.92
2022-11-15T23:04:48.030Z,3.75
2022-11-15T23:07:18.874Z,1.98
2022-11-15T23:09:52.415Z,1.90
2022-11-15T23:12:43.062Z,1.20
2022-11-15T23:15:16.548Z,2.00
2022-11-15T23:17:46.039Z,1.67
2022-11-15T23:20:41.993Z,1.20
2022-11-15T23:23:13.621Z,1.52
2022-11-15T23:25:45.951Z,1.92
2022-11-15T23:28:16.100Z,1.25
2022-11-15T23:31:05.445Z,1.48
2022-11-15T23:33:52.177Z,1.13
2022-11-15T23:36:21.766Z,1.20
2022-11-15T23:38:52.410Z,1.00
2022-11-15T23:41:23.781Z,0.95
2022-11-15T23:44:00.370Z,0.90
2022-11-15T23:46:30.532Z,1.00
2022-11-15T23:49:01.536Z,1.38
2022-11-15T23:51:31.212Z,2.03
2022-11-15T23:54:03.061Z,0.60
2022-11-15T23:56:33.969Z,1.35
2022-11-15T23:59:03.596Z,0.85
